sensor_id;sensor_type;location;lat;lon;timestamp;P1;durP1;ratioP1;P2;durP2;ratioP2
23300;SDS011;11819;51.394;12.340;2023-02-15T00:00:19;49.07;;;25.93;;
23300;SDS011;11819;51.394;12.340;2023-02-15T00:02:45;44.97;;;24.63;;
23300;SDS011;11819;51.394;12.340;2023-02-15T00:05:11;49.07;;;26.10;;
23300;SDS011;11819;51.394;12.340;2023-02-15T00:07:36;46.43;;;25.30;;
23300;SDS011;11819;51.394;12.340;2023-02-15T00:10:02;48.13;;;25.50;;
23300;SDS011;11819;51.394;12.340;2023-02-15T00:12:28;43.67;;;25.50;;
23300;SDS011;11819;51.394;12.340;2023-02-15T00:14:54;47.80;;;25.27;;
23300;SDS011;11819;51.394;12.340;2023-02-15T00:17:20;49.90;;;26.63;;
23300;SDS011;11819;51.394;12.340;2023-02-15T00:19:46;44.20;;;24.33;;
23300;SDS011;11819;51.394;12.340;2023-02-15T00:22:11;45.27;;;25.13;;
23300;SDS011;11819;51.394;12.340;2023-02-15T00:24:37;45.93;;;26.87;;
23300;SDS011;11819;51.394;12.340;2023-02-15T00:27:03;49.73;;;24.93;;
23300;SDS011;11819;51.394;12.340;2023-02-15T00:29:28;49.73;;;26.30;;
23300;SDS011;11819;51.394;12.340;2023-02-15T00:31:54;47.60;;;26.13;;
23300;SDS011;11819;51.394;12.340;2023-02-15T00:34:24;48.80;;;25.97;;
23300;SDS011;11819;51.394;12.340;2023-02-15T00:36:50;52.07;;;28.37;;
23300;SDS011;11819;51.394;12.340;2023-02-15T00:39:17;54.63;;;27.73;;
23300;SDS011;11819;51.394;12.340;2023-02-15T00:41:43;46.70;;;26.57;;
23300;SDS011;11819;51.394;12.340;2023-02-15T00:44:10;48.83;;;26.97;;
23300;SDS011;11819;51.394;12.340;2023-02-15T00:46:36;45.00;;;25.20;;
23300;SDS011;11819;51.394;12.340;2023-02-15T00:49:02;48.30;;;25.20;;
23300;SDS011;11819;51.394;12.340;2023-02-15T00:51:29;49.07;;;26.07;;
23300;SDS011;11819;51.394;12.340;2023-02-15T00:53:55;45.97;;;24.67;;
23300;SDS011;11819;51.394;12.340;2023-02-15T00:56:21;47.90;;;25.67;;
23300;SDS011;11819;51.394;12.340;2023-02-15T00:58:46;52.50;;;26.90;;
23300;SDS011;11819;51.394;12.340;2023-02-15T01:01:13;46.67;;;24.90;;
23300;SDS011;11819;51.394;12.340;2023-02-15T01:03:43;43.93;;;25.17;;
23300;SDS011;11819;51.394;12.340;2023-02-15T01:06:11;45.93;;;25.33;;
23300;SDS011;11819;51.394;12.340;2023-02-15T01:08:38;46.90;;;27.00;;
23300;SDS011;11819;51.394;12.340;2023-02-15T01:11:04;51.57;;;27.47;;
23300;SDS011;11819;51.394;12.340;2023-02-15T01:13:32;48.13;;;26.87;;
23300;SDS011;11819;51.394;12.340;2023-02-15T01:15:58;48.07;;;27.80;;
23300;SDS011;11819;51.394;12.340;2023-02-15T01:18:24;49.30;;;26.10;;
23300;SDS011;11819;51.394;12.340;2023-02-15T01:20:51;48.00;;;25.37;;
23300;SDS011;11819;51.394;12.340;2023-02-15T01:23:17;45.70;;;25.80;;
23300;SDS011;11819;51.394;12.340;2023-02-15T01:25:45;47.13;;;25.47;;
23300;SDS011;11819;51.394;12.340;2023-02-15T01:28:10;47.53;;;25.33;;
23300;SDS011;11819;51.394;12.340;2023-02-15T01:30:37;45.27;;;25.53;;
23300;SDS011;11819;51.394;12.340;2023-02-15T01:33:03;41.20;;;22.63;;
23300;SDS011;11819;51.394;12.340;2023-02-15T01:35:30;44.50;;;25.03;;
23300;SDS011;11819;51.394;12.340;2023-02-15T01:37:55;45.33;;;23.50;;
23300;SDS011;11819;51.394;12.340;2023-02-15T01:40:22;46.00;;;24.83;;
23300;SDS011;11819;51.394;12.340;2023-02-15T01:42:51;44.63;;;25.43;;
23300;SDS011;11819;51.394;12.340;2023-02-15T01:45:31;48.50;;;27.63;;
23300;SDS011;11819;51.394;12.340;2023-02-15T01:48:04;45.53;;;25.17;;
23300;SDS011;11819;51.394;12.340;2023-02-15T01:50:37;47.03;;;23.40;;
23300;SDS011;11819;51.394;12.340;2023-02-15T01:53:08;44.13;;;24.17;;
23300;SDS011;11819;51.394;12.340;2023-02-15T01:55:48;46.00;;;23.03;;
23300;SDS011;11819;51.394;12.340;2023-02-15T01:58:19;41.40;;;23.60;;
23300;SDS011;11819;51.394;12.340;2023-02-15T02:00:46;45.63;;;23.87;;
23300;SDS011;11819;51.394;12.340;2023-02-15T02:03:12;45.67;;;25.70;;
23300;SDS011;11819;51.394;12.340;2023-02-15T02:05:38;41.70;;;23.33;;
23300;SDS011;11819;51.394;12.340;2023-02-15T02:08:05;41.93;;;24.07;;
23300;SDS011;11819;51.394;12.340;2023-02-15T02:10:32;43.50;;;24.17;;
23300;SDS011;11819;51.394;12.340;2023-02-15T02:12:58;40.67;;;23.03;;
23300;SDS011;11819;51.394;12.340;2023-02-15T02:18:21;45.87;;;25.57;;
23300;SDS011;11819;51.394;12.340;2023-02-15T02:26:33;44.60;;;25.17;;
23300;SDS011;11819;51.394;12.340;2023-02-15T02:29:33;44.57;;;23.47;;
23300;SDS011;11819;51.394;12.340;2023-02-15T02:34:51;39.10;;;23.93;;
23300;SDS011;11819;51.394;12.340;2023-02-15T02:37:37;45.00;;;24.73;;
23300;SDS011;11819;51.394;12.340;2023-02-15T02:40:23;48.23;;;26.17;;
23300;SDS011;11819;51.394;12.340;2023-02-15T02:43:14;47.83;;;25.43;;
23300;SDS011;11819;51.394;12.340;2023-02-15T02:45:50;42.83;;;23.77;;
23300;SDS011;11819;51.394;12.340;2023-02-15T02:48:23;46.87;;;24.20;;
23300;SDS011;11819;51.394;12.340;2023-02-15T02:50:51;44.83;;;25.60;;
23300;SDS011;11819;51.394;12.340;2023-02-15T02:53:17;38.53;;;23.33;;
23300;SDS011;11819;51.394;12.340;2023-02-15T02:55:44;40.73;;;23.50;;
23300;SDS011;11819;51.394;12.340;2023-02-15T02:58:26;40.27;;;22.40;;
23300;SDS011;11819;51.394;12.340;2023-02-15T03:03:47;42.03;;;23.00;;
23300;SDS011;11819;51.394;12.340;2023-02-15T03:09:03;41.03;;;23.93;;
23300;SDS011;11819;51.394;12.340;2023-02-15T03:11:40;41.00;;;23.60;;
23300;SDS011;11819;51.394;12.340;2023-02-15T03:14:08;41.33;;;22.20;;
23300;SDS011;11819;51.394;12.340;2023-02-15T03:16:34;34.10;;;21.47;;
23300;SDS011;11819;51.394;12.340;2023-02-15T03:19:02;36.30;;;21.40;;
23300;SDS011;11819;51.394;12.340;2023-02-15T03:21:41;37.73;;;22.10;;
23300;SDS011;11819;51.394;12.340;2023-02-15T03:24:23;42.03;;;22.40;;
23300;SDS011;11819;51.394;12.340;2023-02-15T03:26:54;39.43;;;22.37;;
23300;SDS011;11819;51.394;12.340;2023-02-15T03:29:22;36.90;;;21.97;;
23300;SDS011;11819;51.394;12.340;2023-02-15T03:31:53;35.33;;;20.30;;
23300;SDS011;11819;51.394;12.340;2023-02-15T03:34:23;36.83;;;21.13;;
23300;SDS011;11819;51.394;12.340;2023-02-15T03:36:50;40.47;;;21.73;;
23300;SDS011;11819;51.394;12.340;2023-02-15T03:41:58;36.63;;;21.47;;
23300;SDS011;11819;51.394;12.340;2023-02-15T03:44:32;39.87;;;21.20;;
23300;SDS011;11819;51.394;12.340;2023-02-15T03:47:05;37.43;;;21.60;;
23300;SDS011;11819;51.394;12.340;2023-02-15T03:49:41;36.17;;;21.57;;
23300;SDS011;11819;51.394;12.340;2023-02-15T03:52:12;36.00;;;20.97;;
23300;SDS011;11819;51.394;12.340;2023-02-15T03:54:40;37.07;;;21.50;;
23300;SDS011;11819;51.394;12.340;2023-02-15T03:57:13;39.00;;;22.10;;
23300;SDS011;11819;51.394;12.340;2023-02-15T04:00:03;35.53;;;21.23;;
23300;SDS011;11819;51.394;12.340;2023-02-15T04:05:25;40.80;;;21.93;;
23300;SDS011;11819;51.394;12.340;2023-02-15T04:07:50;44.17;;;23.30;;
23300;SDS011;11819;51.394;12.340;2023-02-15T04:10:16;37.50;;;22.63;;
23300;SDS011;11819;51.394;12.340;2023-02-15T04:13:00;40.57;;;23.67;;
23300;SDS011;11819;51.394;12.340;2023-02-15T04:15:26;42.67;;;22.47;;
23300;SDS011;11819;51.394;12.340;2023-02-15T04:18:10;38.87;;;20.87;;
23300;SDS011;11819;51.394;12.340;2023-02-15T04:20:36;37.93;;;21.03;;
23300;SDS011;11819;51.394;12.340;2023-02-15T04:23:20;38.13;;;21.33;;
23300;SDS011;11819;51.394;12.340;2023-02-15T04:26:04;39.23;;;22.90;;
23300;SDS011;11819;51.394;12.340;2023-02-15T04:28:30;38.63;;;21.43;;
23300;SDS011;11819;51.394;12.340;2023-02-15T04:30:56;34.50;;;21.23;;
23300;SDS011;11819;51.394;12.340;2023-02-15T04:33:22;39.27;;;21.30;;
23300;SDS011;11819;51.394;12.340;2023-02-15T04:35:47;38.13;;;22.63;;
23300;SDS011;11819;51.394;12.340;2023-02-15T04:38:13;38.33;;;22.10;;
23300;SDS011;11819;51.394;12.340;2023-02-15T04:40:38;41.53;;;23.33;;
23300;SDS011;11819;51.394;12.340;2023-02-15T04:43:04;38.27;;;21.97;;
23300;SDS011;11819;51.394;12.340;2023-02-15T04:45:29;34.93;;;20.83;;
23300;SDS011;11819;51.394;12.340;2023-02-15T04:47:55;38.23;;;22.67;;
23300;SDS011;11819;51.394;12.340;2023-02-15T04:50:20;42.20;;;22.20;;
23300;SDS011;11819;51.394;12.340;2023-02-15T04:52:46;37.43;;;22.77;;
23300;SDS011;11819;51.394;12.340;2023-02-15T04:55:12;37.13;;;21.57;;
23300;SDS011;11819;51.394;12.340;2023-02-15T04:57:39;42.87;;;23.07;;
23300;SDS011;11819;51.394;12.340;2023-02-15T05:00:04;39.87;;;22.50;;
23300;SDS011;11819;51.394;12.340;2023-02-15T05:02:31;38.83;;;20.80;;
23300;SDS011;11819;51.394;12.340;2023-02-15T05:04:56;40.63;;;22.03;;
23300;SDS011;11819;51.394;12.340;2023-02-15T05:07:22;37.77;;;21.37;;
23300;SDS011;11819;51.394;12.340;2023-02-15T05:09:48;36.43;;;21.83;;
23300;SDS011;11819;51.394;12.340;2023-02-15T05:12:14;37.77;;;21.43;;
23300;SDS011;11819;51.394;12.340;2023-02-15T05:14:39;35.87;;;21.27;;
23300;SDS011;11819;51.394;12.340;2023-02-15T05:17:05;39.70;;;21.03;;
23300;SDS011;11819;51.394;12.340;2023-02-15T05:19:31;37.93;;;22.50;;
23300;SDS011;11819;51.394;12.340;2023-02-15T05:21:56;38.53;;;21.67;;
23300;SDS011;11819;51.394;12.340;2023-02-15T05:24:22;36.13;;;21.37;;
23300;SDS011;11819;51.394;12.340;2023-02-15T05:27:06;36.60;;;20.97;;
23300;SDS011;11819;51.394;12.340;2023-02-15T05:29:53;37.23;;;21.23;;
23300;SDS011;11819;51.394;12.340;2023-02-15T05:32:19;37.27;;;19.93;;
23300;SDS011;11819;51.394;12.340;2023-02-15T05:34:44;38.10;;;20.23;;
23300;SDS011;11819;51.394;12.340;2023-02-15T05:37:10;34.77;;;19.80;;
23300;SDS011;11819;51.394;12.340;2023-02-15T05:39:35;34.00;;;19.67;;
23300;SDS011;11819;51.394;12.340;2023-02-15T05:42:01;33.23;;;20.43;;
23300;SDS011;11819;51.394;12.340;2023-02-15T05:44:27;35.17;;;20.37;;
23300;SDS011;11819;51.394;12.340;2023-02-15T05:46:52;32.47;;;18.40;;
23300;SDS011;11819;51.394;12.340;2023-02-15T05:49:18;30.37;;;17.97;;
23300;SDS011;11819;51.394;12.340;2023-02-15T05:51:43;32.33;;;18.67;;
23300;SDS011;11819;51.394;12.340;2023-02-15T05:54:09;33.33;;;18.73;;
23300;SDS011;11819;51.394;12.340;2023-02-15T05:56:35;29.53;;;17.63;;
23300;SDS011;11819;51.394;12.340;2023-02-15T05:59:00;30.13;;;18.10;;
23300;SDS011;11819;51.394;12.340;2023-02-15T06:01:26;32.83;;;18.67;;
23300;SDS011;11819;51.394;12.340;2023-02-15T06:03:51;33.53;;;19.63;;
23300;SDS011;11819;51.394;12.340;2023-02-15T06:06:17;33.27;;;19.50;;
23300;SDS011;11819;51.394;12.340;2023-02-15T06:08:43;33.77;;;19.83;;
23300;SDS011;11819;51.394;12.340;2023-02-15T06:11:09;30.60;;;19.83;;
23300;SDS011;11819;51.394;12.340;2023-02-15T06:13:34;30.33;;;18.30;;
23300;SDS011;11819;51.394;12.340;2023-02-15T06:16:00;35.27;;;20.17;;
23300;SDS011;11819;51.394;12.340;2023-02-15T06:18:25;32.47;;;18.40;;
23300;SDS011;11819;51.394;12.340;2023-02-15T06:20:51;29.13;;;17.97;;
23300;SDS011;11819;51.394;12.340;2023-02-15T06:23:18;32.97;;;19.70;;
23300;SDS011;11819;51.394;12.340;2023-02-15T06:25:46;31.27;;;17.20;;
23300;SDS011;11819;51.394;12.340;2023-02-15T06:28:12;34.07;;;18.27;;
23300;SDS011;11819;51.394;12.340;2023-02-15T06:30:38;28.57;;;17.50;;
23300;SDS011;11819;51.394;12.340;2023-02-15T06:33:03;28.97;;;16.93;;
23300;SDS011;11819;51.394;12.340;2023-02-15T06:35:29;34.87;;;18.37;;
23300;SDS011;11819;51.394;12.340;2023-02-15T06:37:55;29.17;;;17.00;;
23300;SDS011;11819;51.394;12.340;2023-02-15T06:40:20;29.83;;;18.43;;
23300;SDS011;11819;51.394;12.340;2023-02-15T06:42:46;31.30;;;18.20;;
23300;SDS011;11819;51.394;12.340;2023-02-15T06:45:11;34.57;;;19.60;;
23300;SDS011;11819;51.394;12.340;2023-02-15T06:47:37;31.27;;;19.13;;
23300;SDS011;11819;51.394;12.340;2023-02-15T06:50:03;35.67;;;18.67;;
23300;SDS011;11819;51.394;12.340;2023-02-15T06:52:30;34.93;;;21.60;;
23300;SDS011;11819;51.394;12.340;2023-02-15T06:54:56;38.57;;;22.27;;
23300;SDS011;11819;51.394;12.340;2023-02-15T06:57:21;37.47;;;23.07;;
23300;SDS011;11819;51.394;12.340;2023-02-15T06:59:47;42.17;;;23.47;;
23300;SDS011;11819;51.394;12.340;2023-02-15T07:02:13;38.97;;;22.90;;
23300;SDS011;11819;51.394;12.340;2023-02-15T07:04:39;41.50;;;23.93;;
23300;SDS011;11819;51.394;12.340;2023-02-15T07:07:07;40.00;;;22.33;;
23300;SDS011;11819;51.394;12.340;2023-02-15T07:09:34;34.50;;;21.37;;
23300;SDS011;11819;51.394;12.340;2023-02-15T07:11:59;43.53;;;23.10;;
23300;SDS011;11819;51.394;12.340;2023-02-15T07:14:44;41.83;;;24.17;;
23300;SDS011;11819;51.394;12.340;2023-02-15T07:17:09;36.70;;;21.53;;
23300;SDS011;11819;51.394;12.340;2023-02-15T07:19:35;36.60;;;21.20;;
23300;SDS011;11819;51.394;12.340;2023-02-15T07:22:01;38.43;;;23.13;;
23300;SDS011;11819;51.394;12.340;2023-02-15T07:24:28;35.20;;;21.10;;
23300;SDS011;11819;51.394;12.340;2023-02-15T07:26:54;40.47;;;22.47;;
23300;SDS011;11819;51.394;12.340;2023-02-15T07:29:19;39.90;;;21.33;;
23300;SDS011;11819;51.394;12.340;2023-02-15T07:31:45;34.53;;;21.60;;
23300;SDS011;11819;51.394;12.340;2023-02-15T07:34:11;34.70;;;20.30;;
23300;SDS011;11819;51.394;12.340;2023-02-15T07:36:37;37.13;;;21.27;;
23300;SDS011;11819;51.394;12.340;2023-02-15T07:39:02;34.63;;;19.57;;
23300;SDS011;11819;51.394;12.340;2023-02-15T07:41:28;34.53;;;20.10;;
23300;SDS011;11819;51.394;12.340;2023-02-15T07:43:53;35.50;;;20.17;;
23300;SDS011;11819;51.394;12.340;2023-02-15T07:46:19;37.37;;;20.40;;
23300;SDS011;11819;51.394;12.340;2023-02-15T07:48:45;34.47;;;19.80;;
23300;SDS011;11819;51.394;12.340;2023-02-15T07:51:11;31.13;;;19.97;;
23300;SDS011;11819;51.394;12.340;2023-02-15T07:53:39;33.87;;;21.83;;
23300;SDS011;11819;51.394;12.340;2023-02-15T07:56:06;32.67;;;20.37;;
23300;SDS011;11819;51.394;12.340;2023-02-15T07:58:35;35.20;;;20.40;;
23300;SDS011;11819;51.394;12.340;2023-02-15T08:01:16;33.03;;;19.47;;
23300;SDS011;11819;51.394;12.340;2023-02-15T08:03:46;35.63;;;20.77;;
23300;SDS011;11819;51.394;12.340;2023-02-15T08:06:13;28.90;;;18.97;;
23300;SDS011;11819;51.394;12.340;2023-02-15T08:08:39;30.40;;;18.87;;
23300;SDS011;11819;51.394;12.340;2023-02-15T08:11:06;32.80;;;20.80;;
23300;SDS011;11819;51.394;12.340;2023-02-15T08:14:05;33.93;;;19.90;;
23300;SDS011;11819;51.394;12.340;2023-02-15T08:16:34;31.20;;;21.03;;
23300;SDS011;11819;51.394;12.340;2023-02-15T08:19:06;33.27;;;19.13;;
23300;SDS011;11819;51.394;12.340;2023-02-15T08:21:38;33.40;;;19.90;;
23300;SDS011;11819;51.394;12.340;2023-02-15T08:24:06;28.43;;;17.23;;
23300;SDS011;11819;51.394;12.340;2023-02-15T08:26:32;31.30;;;19.00;;
23300;SDS011;11819;51.394;12.340;2023-02-15T08:28:59;28.10;;;17.93;;
23300;SDS011;11819;51.394;12.340;2023-02-15T08:31:25;30.77;;;17.77;;
23300;SDS011;11819;51.394;12.340;2023-02-15T08:33:52;29.67;;;17.77;;
23300;SDS011;11819;51.394;12.340;2023-02-15T08:36:21;30.77;;;18.27;;
23300;SDS011;11819;51.394;12.340;2023-02-15T08:38:48;26.47;;;16.20;;
23300;SDS011;11819;51.394;12.340;2023-02-15T08:43:44;24.67;;;15.00;;
23300;SDS011;11819;51.394;12.340;2023-02-15T08:46:15;25.27;;;14.37;;
23300;SDS011;11819;51.394;12.340;2023-02-15T08:48:41;27.20;;;16.13;;
23300;SDS011;11819;51.394;12.340;2023-02-15T08:51:20;25.53;;;16.37;;
23300;SDS011;11819;51.394;12.340;2023-02-15T08:53:55;23.13;;;15.03;;
23300;SDS011;11819;51.394;12.340;2023-02-15T08:56:23;27.90;;;15.93;;
23300;SDS011;11819;51.394;12.340;2023-02-15T08:58:50;23.70;;;14.57;;
23300;SDS011;11819;51.394;12.340;2023-02-15T09:01:18;23.63;;;14.63;;
23300;SDS011;11819;51.394;12.340;2023-02-15T09:03:46;26.10;;;14.77;;
23300;SDS011;11819;51.394;12.340;2023-02-15T09:06:13;21.97;;;14.43;;
23300;SDS011;11819;51.394;12.340;2023-02-15T09:08:39;23.07;;;15.17;;
23300;SDS011;11819;51.394;12.340;2023-02-15T09:11:05;22.57;;;13.73;;
23300;SDS011;11819;51.394;12.340;2023-02-15T09:13:41;20.53;;;13.97;;
23300;SDS011;11819;51.394;12.340;2023-02-15T09:16:08;22.93;;;14.47;;
23300;SDS011;11819;51.394;12.340;2023-02-15T09:18:35;21.73;;;12.73;;
23300;SDS011;11819;51.394;12.340;2023-02-15T09:21:13;21.43;;;14.37;;
23300;SDS011;11819;51.394;12.340;2023-02-15T09:23:41;22.07;;;13.13;;
23300;SDS011;11819;51.394;12.340;2023-02-15T09:26:17;20.80;;;12.17;;
23300;SDS011;11819;51.394;12.340;2023-02-15T09:28:44;23.97;;;14.20;;
23300;SDS011;11819;51.394;12.340;2023-02-15T09:31:11;20.33;;;13.23;;
23300;SDS011;11819;51.394;12.340;2023-02-15T09:33:42;22.97;;;13.67;;
23300;SDS011;11819;51.394;12.340;2023-02-15T09:36:18;20.63;;;14.03;;
23300;SDS011;11819;51.394;12.340;2023-02-15T09:38:59;19.33;;;11.17;;
23300;SDS011;11819;51.394;12.340;2023-02-15T09:41:46;23.20;;;13.23;;
23300;SDS011;11819;51.394;12.340;2023-02-15T09:58:46;23.67;;;14.97;;
23300;SDS011;11819;51.394;12.340;2023-02-15T10:07:04;21.87;;;12.90;;
23300;SDS011;11819;51.394;12.340;2023-02-15T10:21:04;18.63;;;11.07;;
23300;SDS011;11819;51.394;12.340;2023-02-15T10:26:43;16.37;;;10.17;;
23300;SDS011;11819;51.394;12.340;2023-02-15T10:29:17;15.63;;;9.10;;
23300;SDS011;11819;51.394;12.340;2023-02-15T10:31:59;17.83;;;9.77;;
23300;SDS011;11819;51.394;12.340;2023-02-15T10:39:53;15.67;;;9.40;;
23300;SDS011;11819;51.394;12.340;2023-02-15T10:42:38;15.37;;;10.13;;
23300;SDS011;11819;51.394;12.340;2023-02-15T10:45:22;15.37;;;10.53;;
23300;SDS011;11819;51.394;12.340;2023-02-15T10:53:18;18.60;;;10.37;;
23300;SDS011;11819;51.394;12.340;2023-02-15T10:58:59;15.60;;;10.03;;
23300;SDS011;11819;51.394;12.340;2023-02-15T11:04:37;14.40;;;9.43;;
23300;SDS011;11819;51.394;12.340;2023-02-15T11:07:19;17.37;;;10.47;;
23300;SDS011;11819;51.394;12.340;2023-02-15T11:09:57;18.90;;;10.50;;
23300;SDS011;11819;51.394;12.340;2023-02-15T11:12:38;14.90;;;9.07;;
23300;SDS011;11819;51.394;12.340;2023-02-15T11:15:19;17.10;;;10.77;;
23300;SDS011;11819;51.394;12.340;2023-02-15T11:18:06;14.23;;;9.70;;
23300;SDS011;11819;51.394;12.340;2023-02-15T11:23:20;15.60;;;10.07;;
23300;SDS011;11819;51.394;12.340;2023-02-15T11:25:52;17.67;;;10.63;;
23300;SDS011;11819;51.394;12.340;2023-02-15T11:28:24;15.50;;;9.93;;
23300;SDS011;11819;51.394;12.340;2023-02-15T11:31:00;14.27;;;9.10;;
23300;SDS011;11819;51.394;12.340;2023-02-15T11:33:37;13.87;;;9.43;;
23300;SDS011;11819;51.394;12.340;2023-02-15T11:36:12;17.73;;;10.10;;
23300;SDS011;11819;51.394;12.340;2023-02-15T11:38:41;13.33;;;8.30;;
23300;SDS011;11819;51.394;12.340;2023-02-15T11:41:13;15.97;;;8.73;;
23300;SDS011;11819;51.394;12.340;2023-02-15T11:46:30;9.43;;;5.77;;
23300;SDS011;11819;51.394;12.340;2023-02-15T11:48:56;13.47;;;8.20;;
23300;SDS011;11819;51.394;12.340;2023-02-15T11:51:23;12.13;;;7.87;;
23300;SDS011;11819;51.394;12.340;2023-02-15T11:53:49;14.47;;;8.30;;
23300;SDS011;11819;51.394;12.340;2023-02-15T11:56:16;15.53;;;10.07;;
23300;SDS011;11819;51.394;12.340;2023-02-15T11:58:54;15.73;;;9.80;;
23300;SDS011;11819;51.394;12.340;2023-02-15T12:01:33;14.68;;;7.40;;
23300;SDS011;11819;51.394;12.340;2023-02-15T12:04:16;16.60;;;10.33;;
23300;SDS011;11819;51.394;12.340;2023-02-15T12:06:54;15.70;;;11.20;;
23300;SDS011;11819;51.394;12.340;2023-02-15T12:12:37;14.43;;;9.10;;
23300;SDS011;11819;51.394;12.340;2023-02-15T12:15:05;12.80;;;8.68;;
23300;SDS011;11819;51.394;12.340;2023-02-15T12:17:41;14.40;;;10.15;;
23300;SDS011;11819;51.394;12.340;2023-02-15T12:23:14;13.38;;;8.85;;
23300;SDS011;11819;51.394;12.340;2023-02-15T12:33:59;17.10;;;10.30;;
23300;SDS011;11819;51.394;12.340;2023-02-15T12:36:29;20.63;;;10.75;;
23300;SDS011;11819;51.394;12.340;2023-02-15T12:41:57;13.35;;;8.07;;
23300;SDS011;11819;51.394;12.340;2023-02-15T12:44:27;12.90;;;8.67;;
23300;SDS011;11819;51.394;12.340;2023-02-15T12:47:02;18.00;;;9.30;;
23300;SDS011;11819;51.394;12.340;2023-02-15T12:49:29;16.63;;;9.45;;
23300;SDS011;11819;51.394;12.340;2023-02-15T12:51:58;13.88;;;8.13;;
23300;SDS011;11819;51.394;12.340;2023-02-15T12:54:35;11.38;;;7.20;;
23300;SDS011;11819;51.394;12.340;2023-02-15T12:57:13;10.57;;;7.55;;
23300;SDS011;11819;51.394;12.340;2023-02-15T13:00:26;12.02;;;7.10;;
23300;SDS011;11819;51.394;12.340;2023-02-15T13:02:52;11.15;;;6.80;;
23300;SDS011;11819;51.394;12.340;2023-02-15T13:05:29;12.55;;;7.47;;
23300;SDS011;11819;51.394;12.340;2023-02-15T13:10:54;9.45;;;6.78;;
23300;SDS011;11819;51.394;12.340;2023-02-15T13:13:24;20.27;;;8.18;;
23300;SDS011;11819;51.394;12.340;2023-02-15T13:15:52;11.23;;;6.70;;
23300;SDS011;11819;51.394;12.340;2023-02-15T13:18:38;10.88;;;7.03;;
23300;SDS011;11819;51.394;12.340;2023-02-15T13:26:44;10.23;;;6.28;;
23300;SDS011;11819;51.394;12.340;2023-02-15T13:29:21;15.05;;;9.90;;
23300;SDS011;11819;51.394;12.340;2023-02-15T13:31:49;11.35;;;8.27;;
23300;SDS011;11819;51.394;12.340;2023-02-15T13:34:31;10.45;;;7.18;;
23300;SDS011;11819;51.394;12.340;2023-02-15T13:37:05;13.10;;;6.53;;
23300;SDS011;11819;51.394;12.340;2023-02-15T13:39:40;13.20;;;6.88;;
23300;SDS011;11819;51.394;12.340;2023-02-15T13:42:14;13.32;;;7.13;;
23300;SDS011;11819;51.394;12.340;2023-02-15T13:45:00;9.23;;;6.43;;
23300;SDS011;11819;51.394;12.340;2023-02-15T13:47:29;8.90;;;6.05;;
23300;SDS011;11819;51.394;12.340;2023-02-15T13:50:04;9.13;;;5.47;;
23300;SDS011;11819;51.394;12.340;2023-02-15T14:04:08;8.65;;;6.32;;
23300;SDS011;11819;51.394;12.340;2023-02-15T14:06:51;16.13;;;6.45;;
23300;SDS011;11819;51.394;12.340;2023-02-15T14:09:40;10.50;;;6.57;;
23300;SDS011;11819;51.394;12.340;2023-02-15T14:15:35;9.10;;;6.25;;
23300;SDS011;11819;51.394;12.340;2023-02-15T14:29:47;8.25;;;5.93;;
23300;SDS011;11819;51.394;12.340;2023-02-15T14:32:14;10.02;;;5.97;;
23300;SDS011;11819;51.394;12.340;2023-02-15T14:35:01;8.57;;;6.20;;
23300;SDS011;11819;51.394;12.340;2023-02-15T14:40:02;8.05;;;5.88;;
23300;SDS011;11819;51.394;12.340;2023-02-15T14:43:04;8.35;;;5.70;;
23300;SDS011;11819;51.394;12.340;2023-02-15T14:48:16;8.85;;;6.03;;
23300;SDS011;11819;51.394;12.340;2023-02-15T14:50:49;7.75;;;5.30;;
23300;SDS011;11819;51.394;12.340;2023-02-15T14:53:15;9.23;;;6.93;;
23300;SDS011;11819;51.394;12.340;2023-02-15T14:58:36;8.10;;;5.05;;
23300;SDS011;11819;51.394;12.340;2023-02-15T15:01:09;8.50;;;4.95;;
23300;SDS011;11819;51.394;12.340;2023-02-15T15:03:35;7.47;;;4.63;;
23300;SDS011;11819;51.394;12.340;2023-02-15T15:06:20;8.95;;;5.25;;
23300;SDS011;11819;51.394;12.340;2023-02-15T15:08:49;8.32;;;5.25;;
23300;SDS011;11819;51.394;12.340;2023-02-15T15:13:58;8.15;;;4.88;;
23300;SDS011;11819;51.394;12.340;2023-02-15T15:18:54;7.30;;;4.85;;
23300;SDS011;11819;51.394;12.340;2023-02-15T15:32:39;10.93;;;5.70;;
23300;SDS011;11819;51.394;12.340;2023-02-15T15:35:44;9.50;;;5.55;;
23300;SDS011;11819;51.394;12.340;2023-02-15T15:44:08;10.30;;;6.15;;
23300;SDS011;11819;51.394;12.340;2023-02-15T15:47:50;9.65;;;6.25;;
23300;SDS011;11819;51.394;12.340;2023-02-15T15:50:12;10.30;;;6.50;;
23300;SDS011;11819;51.394;12.340;2023-02-15T15:52:40;14.25;;;6.75;;
23300;SDS011;11819;51.394;12.340;2023-02-15T15:55:17;12.40;;;6.38;;
23300;SDS011;11819;51.394;12.340;2023-02-15T15:57:48;10.75;;;6.45;;
23300;SDS011;11819;51.394;12.340;2023-02-15T16:00:25;10.07;;;6.57;;
23300;SDS011;11819;51.394;12.340;2023-02-15T16:02:57;14.48;;;8.90;;
23300;SDS011;11819;51.394;12.340;2023-02-15T16:05:22;12.15;;;7.15;;
23300;SDS011;11819;51.394;12.340;2023-02-15T16:07:48;10.75;;;7.18;;
23300;SDS011;11819;51.394;12.340;2023-02-15T16:10:24;12.82;;;6.80;;
23300;SDS011;11819;51.394;12.340;2023-02-15T16:12:52;19.67;;;10.20;;
23300;SDS011;11819;51.394;12.340;2023-02-15T16:15:20;13.35;;;8.77;;
23300;SDS011;11819;51.394;12.340;2023-02-15T16:17:49;12.80;;;9.13;;
23300;SDS011;11819;51.394;12.340;2023-02-15T16:20:21;15.55;;;10.20;;
23300;SDS011;11819;51.394;12.340;2023-02-15T16:22:48;17.08;;;10.68;;
23300;SDS011;11819;51.394;12.340;2023-02-15T16:25:25;16.30;;;10.52;;
23300;SDS011;11819;51.394;12.340;2023-02-15T16:28:11;12.52;;;8.55;;
23300;SDS011;11819;51.394;12.340;2023-02-15T16:30:38;15.07;;;8.57;;
23300;SDS011;11819;51.394;12.340;2023-02-15T16:33:08;55.05;;;24.20;;
23300;SDS011;11819;51.394;12.340;2023-02-15T16:35:37;12.35;;;7.97;;
23300;SDS011;11819;51.394;12.340;2023-02-15T16:38:08;12.80;;;8.15;;
23300;SDS011;11819;51.394;12.340;2023-02-15T16:40:49;12.88;;;7.95;;
23300;SDS011;11819;51.394;12.340;2023-02-15T16:43:22;10.77;;;8.27;;
23300;SDS011;11819;51.394;12.340;2023-02-15T16:45:51;10.85;;;7.10;;
23300;SDS011;11819;51.394;12.340;2023-02-15T16:48:23;13.40;;;7.55;;
23300;SDS011;11819;51.394;12.340;2023-02-15T16:50:52;10.63;;;7.55;;
23300;SDS011;11819;51.394;12.340;2023-02-15T16:53:24;12.70;;;7.93;;
23300;SDS011;11819;51.394;12.340;2023-02-15T16:55:55;12.50;;;7.82;;
23300;SDS011;11819;51.394;12.340;2023-02-15T16:58:26;13.07;;;8.55;;
23300;SDS011;11819;51.394;12.340;2023-02-15T17:01:06;13.70;;;9.73;;
23300;SDS011;11819;51.394;12.340;2023-02-15T17:03:34;12.90;;;8.80;;
23300;SDS011;11819;51.394;12.340;2023-02-15T17:06:00;14.55;;;9.15;;
23300;SDS011;11819;51.394;12.340;2023-02-15T17:08:29;14.15;;;9.10;;
23300;SDS011;11819;51.394;12.340;2023-02-15T17:13:36;14.05;;;10.30;;
23300;SDS011;11819;51.394;12.340;2023-02-15T17:18:31;19.15;;;12.65;;
23300;SDS011;11819;51.394;12.340;2023-02-15T17:21:08;18.23;;;13.25;;
23300;SDS011;11819;51.394;12.340;2023-02-15T17:23:41;15.43;;;10.93;;